createdAt,value
2019-01-29T00:00:15.160Z,7.20
2019-01-29T00:02:44.123Z,11.73
2019-01-29T00:05:12.658Z,8.70
2019-01-29T00:07:41.075Z,14.00
2019-01-29T00:10:09.904Z,8.63
2019-01-29T00:12:38.318Z,10.50
2019-01-29T00:15:10.153Z,9.97
2019-01-29T00:17:45.569Z,14.30
2019-01-29T00:20:15.272Z,19.17
2019-01-29T00:22:43.670Z,6.83
2019-01-29T00:25:12.873Z,8.00
2019-01-29T00:27:41.316Z,25.03
2019-01-29T00:30:12.456Z,8.40
2019-01-29T00:32:40.887Z,11.03
2019-01-29T00:35:10.221Z,10.27
2019-01-29T00:37:38.728Z,11.87
2019-01-29T00:40:12.489Z,13.13
2019-01-29T00:42:40.924Z,12.83
2019-01-29T00:45:14.702Z,8.50
2019-01-29T00:47:43.107Z,10.60
2019-01-29T00:50:14.956Z,8.67
2019-01-29T00:52:43.451Z,12.17
2019-01-29T00:55:14.650Z,12.20
2019-01-29T00:57:43.412Z,9.30
2019-01-29T01:00:23.141Z,10.87
2019-01-29T01:02:53.228Z,5.43
2019-01-29T01:05:22.021Z,8.87
2019-01-29T01:07:50.474Z,7.73
2019-01-29T01:10:20.572Z,11.50
2019-01-29T01:12:49.303Z,11.50
2019-01-29T01:15:18.100Z,11.00
2019-01-29T01:17:46.568Z,6.70
2019-01-29T01:20:18.082Z,11.50
2019-01-29T01:22:51.072Z,18.87
2019-01-29T01:25:17.316Z,8.97
2019-01-29T01:27:45.732Z,13.47
2019-01-29T01:30:16.882Z,20.70
2019-01-29T01:32:45.276Z,12.97
2019-01-29T01:35:14.239Z,8.70
2019-01-29T01:37:43.025Z,15.00
2019-01-29T01:40:14.512Z,11.73
2019-01-29T01:42:42.946Z,12.63
2019-01-29T01:45:12.173Z,13.33
2019-01-29T01:47:40.591Z,8.87
2019-01-29T01:50:11.541Z,12.00
2019-01-29T01:52:39.969Z,10.73
2019-01-29T01:55:11.381Z,10.57
2019-01-29T01:57:39.780Z,12.23
2019-01-29T02:00:13.718Z,9.13
2019-01-29T02:02:42.120Z,10.53
2019-01-29T02:05:10.723Z,11.27
2019-01-29T02:07:39.141Z,11.70
2019-01-29T02:10:13.324Z,11.50
2019-01-29T02:12:41.728Z,12.33
2019-01-29T02:15:11.879Z,14.03
2019-01-29T02:17:40.298Z,8.67
2019-01-29T02:20:11.713Z,28.03
2019-01-29T02:22:40.136Z,12.83
2019-01-29T02:25:09.088Z,17.63
2019-01-29T02:27:37.485Z,12.80
2019-01-29T02:30:08.970Z,11.47
2019-01-29T02:32:37.617Z,6.93
2019-01-29T02:35:06.976Z,6.90
2019-01-29T02:37:35.394Z,10.10
2019-01-29T02:40:06.826Z,12.83
2019-01-29T02:42:35.227Z,8.50
2019-01-29T02:45:05.334Z,13.13
2019-01-29T02:47:33.737Z,19.53
2019-01-29T02:50:02.329Z,8.93
2019-01-29T02:52:30.746Z,7.50
2019-01-29T02:54:59.154Z,16.67
2019-01-29T02:57:27.700Z,11.70
2019-01-29T02:59:56.113Z,10.37
2019-01-29T03:02:24.540Z,19.73
2019-01-29T03:04:53.494Z,16.13
2019-01-29T03:07:22.251Z,14.27
2019-01-29T03:09:50.780Z,8.80
2019-01-29T03:12:19.175Z,8.40
2019-01-29T03:14:47.612Z,7.20
2019-01-29T03:17:16.044Z,10.97
2019-01-29T03:19:44.459Z,6.23
2019-01-29T03:22:13.020Z,5.93
2019-01-29T03:24:41.560Z,8.80
2019-01-29T03:27:09.995Z,11.70
2019-01-29T03:29:38.397Z,12.40
2019-01-29T03:32:06.814Z,13.60
2019-01-29T03:34:35.243Z,13.93
2019-01-29T03:37:03.659Z,9.43
2019-01-29T03:39:32.070Z,5.80
2019-01-29T03:42:00.479Z,3.70
2019-01-29T03:44:28.885Z,5.90
2019-01-29T03:46:57.292Z,6.47
2019-01-29T03:49:25.704Z,13.23
2019-01-29T03:51:54.351Z,19.57
2019-01-29T03:54:22.775Z,15.47
2019-01-29T03:56:51.238Z,8.83
2019-01-29T03:59:19.640Z,16.80
2019-01-29T04:01:48.242Z,13.60
2019-01-29T04:04:16.659Z,18.20
2019-01-29T04:06:45.094Z,8.70
2019-01-29T04:09:14.228Z,8.90
2019-01-29T04:11:42.627Z,6.10
2019-01-29T04:14:11.324Z,14.47
2019-01-29T04:16:39.728Z,11.87
2019-01-29T04:19:08.133Z,11.97
2019-01-29T04:21:36.549Z,10.23
2019-01-29T04:24:04.957Z,12.03
2019-01-29T04:26:33.357Z,7.13
2019-01-29T04:29:07.501Z,10.83
2019-01-29T04:31:35.902Z,11.50
2019-01-29T04:34:04.755Z,12.03
2019-01-29T04:36:34.714Z,10.83
2019-01-29T04:39:04.881Z,8.40
2019-01-29T04:41:33.278Z,12.10
2019-01-29T04:44:01.705Z,24.17
2019-01-29T04:46:30.104Z,15.20
2019-01-29T04:48:58.532Z,7.13
2019-01-29T04:51:26.940Z,6.43
2019-01-29T04:53:57.624Z,13.33
2019-01-29T04:56:25.500Z,10.10
2019-01-29T04:58:53.902Z,6.53
2019-01-29T05:01:22.300Z,7.60
2019-01-29T05:03:50.721Z,9.13
2019-01-29T05:06:19.116Z,9.50
2019-01-29T05:08:47.654Z,13.33
2019-01-29T05:11:16.072Z,5.80
2019-01-29T05:13:44.484Z,8.43
2019-01-29T05:16:12.896Z,13.27
2019-01-29T05:18:41.322Z,13.93
2019-01-29T05:21:09.717Z,7.50
2019-01-29T05:23:38.232Z,12.80
2019-01-29T05:26:06.629Z,6.63
2019-01-29T05:28:35.040Z,9.40
2019-01-29T05:31:03.446Z,12.00
2019-01-29T05:33:31.856Z,6.33
2019-01-29T05:36:00.254Z,9.67
2019-01-29T05:38:28.659Z,11.73
2019-01-29T05:40:57.061Z,5.47
2019-01-29T05:43:25.606Z,8.27
2019-01-29T05:45:54.014Z,5.00
2019-01-29T05:48:22.423Z,10.97
2019-01-29T05:50:50.852Z,3.73
2019-01-29T05:53:19.244Z,7.73
2019-01-29T05:55:47.660Z,12.27
2019-01-29T05:58:16.068Z,8.80
2019-01-29T06:00:44.748Z,7.30
2019-01-29T06:03:13.159Z,8.20
2019-01-29T06:05:41.829Z,4.97
2019-01-29T06:08:10.231Z,8.47
2019-01-29T06:10:38.644Z,5.50
2019-01-29T06:13:07.124Z,12.50
2019-01-29T06:15:35.638Z,5.77
2019-01-29T06:18:04.319Z,5.30
2019-01-29T06:20:32.794Z,7.73
2019-01-29T06:23:01.199Z,8.30
2019-01-29T06:25:29.621Z,10.53
2019-01-29T06:27:58.035Z,7.00
2019-01-29T06:30:26.909Z,8.97
2019-01-29T06:32:55.396Z,10.27
2019-01-29T06:35:24.189Z,9.37
2019-01-29T06:37:52.623Z,15.80
2019-01-29T06:40:26.500Z,10.43
2019-01-29T06:42:56.501Z,18.33
2019-01-29T06:45:26.620Z,7.27
2019-01-29T06:47:55.360Z,5.83
2019-01-29T06:50:26.417Z,14.23
2019-01-29T06:52:56.067Z,17.53
2019-01-29T06:55:25.920Z,18.83
2019-01-29T06:57:56.025Z,7.07
2019-01-29T07:00:32.609Z,8.37
2019-01-29T07:03:01.956Z,7.10
2019-01-29T07:05:30.714Z,9.63
2019-01-29T07:07:59.303Z,9.23
2019-01-29T07:10:28.616Z,14.27
2019-01-29T07:12:57.279Z,17.57
2019-01-29T07:15:47.637Z,16.77
2019-01-29T07:18:21.119Z,20.60
2019-01-29T07:20:49.588Z,9.43
2019-01-29T07:23:18.321Z,9.10
2019-01-29T07:25:46.753Z,8.93
2019-01-29T07:28:15.333Z,19.93
2019-01-29T07:30:43.732Z,27.67
2019-01-29T07:33:12.147Z,14.83
2019-01-29T07:35:40.527Z,11.07
2019-01-29T07:38:08.967Z,6.87
2019-01-29T07:40:37.395Z,14.63
2019-01-29T07:43:05.796Z,12.63
2019-01-29T07:45:34.216Z,13.80
2019-01-29T07:48:02.644Z,10.33
2019-01-29T07:50:33.173Z,9.37
2019-01-29T07:53:01.580Z,8.57
2019-01-29T07:55:29.996Z,13.93
2019-01-29T07:57:58.405Z,13.23
2019-01-29T08:00:26.806Z,16.10
2019-01-29T08:02:55.584Z,14.73
2019-01-29T08:05:23.980Z,12.60
2019-01-29T08:07:52.397Z,12.47
2019-01-29T08:10:20.815Z,20.37
2019-01-29T08:12:49.225Z,8.23
2019-01-29T08:15:20.536Z,16.10
2019-01-29T08:17:49.137Z,9.87
2019-01-29T08:20:18.279Z,7.33
2019-01-29T08:22:46.704Z,12.60
2019-01-29T08:25:15.433Z,11.70
2019-01-29T08:27:45.377Z,13.13
2019-01-29T08:30:18.370Z,8.60
2019-01-29T08:32:46.788Z,8.57
2019-01-29T08:35:16.963Z,10.47
2019-01-29T08:37:45.384Z,8.67
2019-01-29T08:40:34.645Z,8.13
2019-01-29T08:43:03.078Z,10.77
2019-01-29T08:45:31.772Z,6.03
2019-01-29T08:48:00.179Z,8.40
2019-01-29T08:50:28.864Z,9.17
2019-01-29T08:52:57.264Z,8.40
2019-01-29T08:55:25.841Z,8.90
2019-01-29T08:57:54.348Z,8.10
2019-01-29T09:00:23.499Z,8.90
2019-01-29T09:03:12.784Z,13.57
2019-01-29T09:05:41.236Z,9.47
2019-01-29T09:08:09.895Z,10.77
2019-01-29T09:10:38.320Z,14.27
2019-01-29T09:13:06.772Z,8.80
2019-01-29T09:15:35.192Z,7.37
2019-01-29T09:18:04.278Z,19.53
2019-01-29T09:20:32.695Z,12.90
2019-01-29T09:23:01.100Z,14.37
2019-01-29T09:25:29.528Z,17.73
2019-01-29T09:27:57.951Z,26.20
2019-01-29T09:30:26.352Z,12.23
2019-01-29T09:32:54.761Z,15.43
2019-01-29T09:35:23.177Z,21.67
2019-01-29T09:37:51.896Z,15.53
2019-01-29T09:40:23.989Z,13.47
2019-01-29T09:42:52.667Z,8.37
2019-01-29T09:45:21.448Z,8.93
2019-01-29T09:47:50.075Z,14.80
2019-01-29T09:50:23.588Z,13.13
2019-01-29T09:52:52.927Z,23.20
2019-01-29T09:55:28.978Z,17.63
2019-01-29T09:57:52.722Z,33.83
2019-01-29T10:00:29.778Z,10.93
2019-01-29T10:02:58.163Z,9.23
2019-01-29T10:05:27.153Z,20.73
2019-01-29T10:07:55.792Z,7.30
2019-01-29T10:10:24.273Z,13.63
2019-01-29T10:12:52.879Z,12.30
2019-01-29T10:15:28.274Z,19.10
2019-01-29T10:17:56.703Z,16.80
2019-01-29T10:20:25.616Z,12.70
2019-01-29T10:22:54.023Z,9.37
2019-01-29T10:25:22.424Z,11.07
2019-01-29T10:27:50.897Z,27.97
2019-01-29T10:30:22.236Z,12.37
2019-01-29T10:32:51.027Z,18.60
2019-01-29T10:35:21.840Z,14.83
2019-01-29T10:37:50.445Z,14.00
2019-01-29T10:40:21.653Z,8.40
2019-01-29T10:42:50.251Z,13.40
2019-01-29T10:45:22.044Z,8.50
2019-01-29T10:47:50.472Z,8.17
2019-01-29T10:50:24.338Z,9.23
2019-01-29T10:52:53.216Z,15.30
2019-01-29T10:55:21.976Z,18.67
2019-01-29T10:57:50.833Z,10.90
2019-01-29T11:00:22.981Z,10.83
2019-01-29T11:02:51.768Z,16.87
2019-01-29T11:05:21.224Z,12.57
2019-01-29T11:07:49.717Z,26.20
2019-01-29T11:10:19.662Z,6.77
2019-01-29T11:12:48.338Z,13.17
2019-01-29T11:15:25.632Z,9.77
2019-01-29T11:17:54.413Z,12.23
2019-01-29T11:20:23.267Z,6.00
2019-01-29T11:22:51.672Z,12.57
2019-01-29T11:25:29.252Z,14.50
2019-01-29T11:27:58.058Z,19.17
2019-01-29T11:30:28.801Z,11.87
2019-01-29T11:32:57.508Z,10.60
2019-01-29T11:35:25.927Z,7.37
2019-01-29T11:37:54.368Z,15.67
2019-01-29T11:40:25.329Z,15.53
2019-01-29T11:42:54.387Z,9.07
2019-01-29T11:45:31.361Z,6.50
2019-01-29T11:47:59.784Z,14.53
2019-01-29T11:50:28.429Z,10.47
2019-01-29T11:52:56.908Z,8.43
2019-01-29T11:55:25.304Z,16.60
2019-01-29T11:57:53.805Z,10.20
2019-01-29T12:00:29.724Z,20.50
2019-01-29T12:02:58.174Z,10.13
2019-01-29T12:05:26.621Z,15.63
2019-01-29T12:07:55.341Z,18.60
2019-01-29T12:10:24.274Z,11.43
2019-01-29T12:12:52.762Z,11.33
2019-01-29T12:15:22.015Z,14.60
2019-01-29T12:17:51.671Z,21.33
2019-01-29T12:20:20.942Z,19.53
2019-01-29T12:22:49.917Z,15.40
2019-01-29T12:25:18.392Z,16.47
2019-01-29T12:27:46.876Z,11.10
2019-01-29T12:30:18.438Z,13.13
2019-01-29T12:32:46.852Z,16.70
2019-01-29T12:35:15.530Z,14.77
2019-01-29T12:37:44.007Z,7.40
2019-01-29T12:40:13.187Z,16.10
2019-01-29T12:42:41.833Z,9.57
2019-01-29T12:45:16.048Z,10.50
2019-01-29T12:47:44.543Z,15.03
2019-01-29T12:50:16.108Z,12.17
2019-01-29T12:52:46.212Z,23.13
2019-01-29T12:55:14.640Z,17.77
2019-01-29T12:57:43.075Z,23.27
2019-01-29T13:00:17.407Z,14.70
2019-01-29T13:02:45.826Z,22.77
2019-01-29T13:05:15.073Z,24.80
2019-01-29T13:07:44.015Z,19.40
2019-01-29T13:10:18.252Z,26.23
2019-01-29T13:12:46.660Z,21.80
2019-01-29T13:15:18.427Z,22.97
2019-01-29T13:17:46.831Z,19.50
2019-01-29T13:20:15.578Z,18.33
2019-01-29T13:22:43.985Z,22.83
2019-01-29T13:25:13.736Z,18.10
2019-01-29T13:27:42.449Z,19.80
2019-01-29T13:30:13.940Z,14.43
2019-01-29T13:32:42.579Z,32.67
2019-01-29T13:35:14.320Z,15.10
2019-01-29T13:37:42.758Z,22.80
2019-01-29T13:40:13.518Z,17.10
2019-01-29T13:42:41.936Z,18.20
2019-01-29T13:45:13.685Z,16.57
2019-01-29T13:47:42.095Z,18.93
2019-01-29T13:50:25.496Z,13.83
2019-01-29T13:52:53.889Z,16.50
2019-01-29T13:55:22.316Z,13.30
2019-01-29T13:57:50.888Z,19.27
2019-01-29T14:00:28.560Z,25.97
2019-01-29T14:02:56.972Z,11.80
2019-01-29T14:05:25.384Z,20.80
2019-01-29T14:07:53.832Z,24.60
2019-01-29T14:10:22.309Z,10.73
2019-01-29T14:12:52.140Z,20.00
2019-01-29T14:15:27.015Z,15.00
2019-01-29T14:17:55.411Z,23.30
2019-01-29T14:20:23.843Z,17.90
2019-01-29T14:22:52.529Z,28.77
2019-01-29T14:25:20.987Z,22.53
2019-01-29T14:27:49.469Z,25.00
2019-01-29T14:30:28.138Z,11.67
2019-01-29T14:32:56.591Z,20.80
2019-01-29T14:35:44.394Z,14.63
2019-01-29T14:38:21.597Z,17.43
2019-01-29T14:40:50.068Z,12.90
2019-01-29T14:43:24.476Z,23.30
2019-01-29T14:45:54.428Z,18.27
2019-01-29T14:48:22.838Z,15.00
2019-01-29T14:50:51.262Z,17.37
2019-01-29T14:53:19.666Z,25.37
2019-01-29T14:55:48.449Z,14.23
2019-01-29T14:58:16.879Z,10.90
2019-01-29T15:00:45.584Z,28.93
2019-01-29T15:03:13.980Z,18.93
2019-01-29T15:05:42.455Z,13.77
2019-01-29T15:08:11.238Z,13.87
2019-01-29T15:10:39.773Z,14.20
2019-01-29T15:13:08.259Z,15.07
2019-01-29T15:15:39.675Z,14.53
2019-01-29T15:18:15.982Z,16.77
2019-01-29T15:20:44.387Z,10.43
2019-01-29T15:23:12.980Z,14.93
2019-01-29T15:25:41.413Z,6.60
2019-01-29T15:28:09.999Z,12.47
2019-01-29T15:30:38.399Z,20.17
2019-01-29T15:33:06.815Z,15.37
2019-01-29T15:35:35.212Z,13.90
2019-01-29T15:38:04.110Z,13.67
2019-01-29T15:40:32.556Z,13.30
2019-01-29T15:43:00.966Z,20.27
2019-01-29T15:45:30.236Z,37.13
2019-01-29T15:47:58.654Z,19.40
2019-01-29T15:50:31.813Z,24.70
2019-01-29T15:53:00.593Z,19.40
2019-01-29T15:55:28.994Z,17.07
2019-01-29T15:57:57.695Z,11.90
2019-01-29T16:00:34.145Z,14.00
2019-01-29T16:03:02.612Z,12.77
2019-01-29T16:05:39.929Z,27.00
2019-01-29T16:08:13.148Z,14.13
2019-01-29T16:10:43.400Z,17.00
2019-01-29T16:13:11.884Z,18.17
2019-01-29T16:15:40.752Z,16.40
2019-01-29T16:18:09.509Z,18.23
2019-01-29T16:20:38.184Z,20.23
2019-01-29T16:23:07.014Z,12.80
2019-01-29T16:25:37.399Z,14.80
2019-01-29T16:28:06.333Z,19.83
2019-01-29T16:30:39.331Z,18.13
2019-01-29T16:33:08.128Z,19.10
2019-01-29T16:35:43.745Z,19.83
2019-01-29T16:38:12.433Z,15.87
2019-01-29T16:40:43.280Z,20.50
2019-01-29T16:43:12.007Z,21.30
2019-01-29T16:45:40.408Z,25.53
2019-01-29T16:48:10.589Z,28.00
2019-01-29T16:50:39.003Z,15.57
2019-01-29T16:53:08.853Z,24.47
2019-01-29T16:55:37.899Z,14.33
2019-01-29T16:58:07.148Z,19.90
2019-01-29T17:00:41.736Z,19.80
2019-01-29T17:03:10.416Z,28.23
2019-01-29T17:05:39.399Z,18.00
2019-01-29T17:08:07.864Z,19.20
2019-01-29T17:10:36.343Z,22.00
2019-01-29T17:13:06.106Z,42.57
2019-01-29T17:15:36.552Z,27.57
2019-01-29T17:18:10.532Z,25.07
2019-01-29T17:20:44.365Z,21.43
2019-01-29T17:23:13.077Z,19.57
2019-01-29T17:25:41.478Z,20.60
2019-01-29T17:28:10.181Z,23.47
2019-01-29T17:30:43.749Z,25.63
2019-01-29T17:33:14.695Z,25.27
2019-01-29T17:35:43.120Z,30.50
2019-01-29T17:38:12.852Z,22.73
2019-01-29T17:40:42.376Z,22.10
2019-01-29T17:43:10.804Z,21.03
2019-01-29T17:45:47.373Z,23.10
2019-01-29T17:48:15.796Z,23.40
2019-01-29T17:50:45.609Z,23.92
2019-01-29T17:53:15.854Z,31.93
2019-01-29T17:55:45.647Z,25.07
2019-01-29T17:58:14.916Z,28.60
2019-01-29T18:00:48.273Z,26.13
2019-01-29T18:03:16.674Z,26.43
2019-01-29T18:05:46.196Z,38.87
2019-01-29T18:08:14.681Z,25.53
2019-01-29T18:10:45.139Z,23.83
2019-01-29T18:13:13.662Z,19.40
2019-01-29T18:15:42.155Z,29.20
2019-01-29T18:18:10.894Z,32.70
2019-01-29T18:20:39.379Z,33.80
2019-01-29T18:23:07.785Z,32.53
2019-01-29T18:25:36.217Z,32.07
2019-01-29T18:28:05.559Z,25.27
2019-01-29T18:30:35.816Z,26.30
2019-01-29T18:33:04.771Z,30.67
2019-01-29T18:35:33.180Z,22.67
2019-01-29T18:38:01.585Z,30.80
2019-01-29T18:40:33.139Z,35.00
2019-01-29T18:43:01.565Z,34.40
2019-01-29T18:45:30.002Z,28.20
2019-01-29T18:47:58.408Z,22.53
2019-01-29T18:50:27.205Z,28.40
2019-01-29T18:52:55.607Z,30.13
2019-01-29T18:55:24.273Z,35.93
2019-01-29T18:57:52.681Z,30.23
2019-01-29T19:00:26.275Z,29.53
2019-01-29T19:02:54.736Z,32.60
2019-01-29T19:05:25.698Z,34.27
2019-01-29T19:07:54.415Z,29.30
2019-01-29T19:10:23.362Z,25.80
2019-01-29T19:12:52.508Z,27.40
2019-01-29T19:15:25.726Z,27.10
2019-01-29T19:17:54.155Z,32.60
2019-01-29T19:20:25.473Z,34.63
2019-01-29T19:22:54.065Z,28.03
2019-01-29T19:25:22.964Z,31.30
2019-01-29T19:27:51.536Z,33.60
2019-01-29T19:30:22.768Z,27.00
2019-01-29T19:32:51.179Z,32.50
2019-01-29T19:35:19.628Z,27.90
2019-01-29T19:37:48.047Z,27.90
2019-01-29T19:40:19.091Z,39.47
2019-01-29T19:42:47.569Z,42.60
2019-01-29T19:45:25.202Z,39.33
2019-01-29T19:47:54.380Z,42.50
2019-01-29T19:50:25.211Z,33.47
2019-01-29T19:52:53.717Z,32.00
2019-01-29T19:55:23.795Z,35.27
2019-01-29T19:57:52.220Z,30.03
2019-01-29T20:00:26.333Z,30.07
2019-01-29T20:02:56.972Z,50.73
2019-01-29T20:05:25.185Z,35.47
2019-01-29T20:07:53.759Z,42.90
2019-01-29T20:10:22.636Z,40.87
2019-01-29T20:12:51.901Z,43.53
2019-01-29T20:15:23.020Z,28.43
2019-01-29T20:17:53.265Z,35.70
2019-01-29T20:20:27.142Z,37.90
2019-01-29T20:22:55.580Z,32.00
2019-01-29T20:25:23.990Z,40.10
2019-01-29T20:27:53.122Z,37.87
2019-01-29T20:30:25.356Z,34.40
2019-01-29T20:32:53.904Z,31.93
2019-01-29T20:35:22.634Z,44.67
2019-01-29T20:37:51.048Z,35.77
2019-01-29T20:40:23.940Z,32.33
2019-01-29T20:42:52.377Z,47.47
2019-01-29T20:45:21.040Z,32.63
2019-01-29T20:47:49.736Z,39.10
2019-01-29T20:50:23.934Z,31.90
2019-01-29T20:52:52.362Z,47.10
2019-01-29T20:55:20.802Z,34.53
2019-01-29T20:57:49.203Z,33.60
2019-01-29T21:00:21.862Z,47.13
2019-01-29T21:02:50.276Z,37.20
2019-01-29T21:05:18.789Z,42.90
2019-01-29T21:07:47.532Z,36.03
2019-01-29T21:10:18.385Z,41.70
2019-01-29T21:12:46.802Z,38.97
2019-01-29T21:15:17.253Z,31.03
2019-01-29T21:17:46.051Z,35.93
2019-01-29T21:20:17.544Z,39.77
2019-01-29T21:22:45.961Z,34.80
2019-01-29T21:25:14.873Z,31.73
2019-01-29T21:27:43.863Z,40.90
2019-01-29T21:30:17.826Z,36.63
2019-01-29T21:32:46.264Z,37.37
2019-01-29T21:35:14.683Z,39.23
2019-01-29T21:37:43.108Z,35.47
2019-01-29T21:40:14.270Z,59.00
2019-01-29T21:42:42.710Z,40.67
2019-01-29T21:45:17.073Z,34.53
2019-01-29T21:47:46.253Z,29.33
2019-01-29T21:50:29.074Z,32.70
2019-01-29T21:52:57.682Z,45.83
2019-01-29T21:55:26.703Z,28.67
2019-01-29T21:57:55.374Z,33.47
2019-01-29T22:00:26.883Z,28.40
2019-01-29T22:02:55.595Z,27.90
2019-01-29T22:05:24.197Z,39.73
2019-01-29T22:07:52.617Z,36.13
2019-01-29T22:10:21.104Z,31.67
2019-01-29T22:12:49.692Z,38.43
2019-01-29T22:15:23.883Z,32.20
2019-01-29T22:17:52.317Z,38.60
2019-01-29T22:20:22.451Z,45.57
2019-01-29T22:22:51.081Z,38.30
2019-01-29T22:25:21.913Z,31.80
2019-01-29T22:27:50.355Z,35.57
2019-01-29T22:30:31.682Z,43.93
2019-01-29T22:33:00.080Z,35.90
2019-01-29T22:35:28.692Z,37.53
2019-01-29T22:37:57.143Z,40.03
2019-01-29T22:40:28.220Z,44.80
2019-01-29T22:42:57.200Z,48.00
2019-01-29T22:45:26.032Z,45.93
2019-01-29T22:47:54.564Z,39.77
2019-01-29T22:50:41.770Z,137.30
2019-01-29T22:53:10.153Z,39.17
2019-01-29T22:55:38.565Z,42.87
2019-01-29T22:58:08.524Z,38.37
2019-01-29T23:00:56.651Z,46.27
2019-01-29T23:03:33.416Z,59.50
2019-01-29T23:06:13.955Z,38.97
2019-01-29T23:08:42.377Z,131.43
2019-01-29T23:11:10.808Z,56.33
2019-01-29T23:13:39.230Z,39.47
2019-01-29T23:16:07.832Z,28.63
2019-01-29T23:18:36.353Z,42.23
2019-01-29T23:21:04.927Z,36.13
2019-01-29T23:23:33.328Z,39.37
2019-01-29T23:26:01.767Z,42.13
2019-01-29T23:28:30.173Z,41.17
2019-01-29T23:30:58.621Z,42.03
2019-01-29T23:33:27.075Z,45.23
2019-01-29T23:35:55.495Z,40.83
2019-01-29T23:38:23.896Z,41.03
2019-01-29T23:40:52.321Z,47.13
2019-01-29T23:43:20.725Z,34.07
2019-01-29T23:45:49.145Z,38.43
2019-01-29T23:48:17.668Z,53.50
2019-01-29T23:50:46.076Z,38.37
2019-01-29T23:53:14.508Z,39.53
2019-01-29T23:55:42.916Z,36.37
2019-01-29T23:58:11.351Z,37.63
